sensor_id;sensor_type;location;lat;lon;timestamp;P1;durP1;ratioP1;P2;durP2;ratioP2
36839;SDS011;24406;51.640;9.566;2023-04-08T00:05:26;8.73;;;7.13;;
36839;SDS011;24406;51.640;9.566;2023-04-08T00:10:52;8.95;;;8.02;;
36839;SDS011;24406;51.640;9.566;2023-04-08T00:16:28;10.05;;;8.80;;
36839;SDS011;24406;51.640;9.566;2023-04-08T00:22:08;10.25;;;9.05;;
36839;SDS011;24406;51.640;9.566;2023-04-08T00:40:35;10.18;;;8.20;;
36839;SDS011;24406;51.640;9.566;2023-04-08T00:46:13;10.55;;;9.27;;
36839;SDS011;24406;51.640;9.566;2023-04-08T00:51:16;11.90;;;10.57;;
36839;SDS011;24406;51.640;9.566;2023-04-08T00:56:19;13.13;;;10.88;;
36839;SDS011;24406;51.640;9.566;2023-04-08T01:01:25;12.57;;;10.77;;
36839;SDS011;24406;51.640;9.566;2023-04-08T01:06:35;13.45;;;11.50;;
36839;SDS011;24406;51.640;9.566;2023-04-08T01:11:43;15.07;;;11.07;;
36839;SDS011;24406;51.640;9.566;2023-04-08T01:16:47;12.15;;;10.20;;
36839;SDS011;24406;51.640;9.566;2023-04-08T01:21:50;14.20;;;10.90;;
36839;SDS011;24406;51.640;9.566;2023-04-08T01:27:00;12.95;;;10.05;;
36839;SDS011;24406;51.640;9.566;2023-04-08T01:32:03;10.13;;;9.03;;
36839;SDS011;24406;51.640;9.566;2023-04-08T01:37:09;9.18;;;8.20;;
36839;SDS011;24406;51.640;9.566;2023-04-08T01:42:12;11.60;;;8.50;;
36839;SDS011;24406;51.640;9.566;2023-04-08T01:47:14;9.15;;;8.23;;
36839;SDS011;24406;51.640;9.566;2023-04-08T01:52:18;14.63;;;11.55;;
36839;SDS011;24406;51.640;9.566;2023-04-08T01:57:26;17.38;;;13.77;;
36839;SDS011;24406;51.640;9.566;2023-04-08T02:07:31;15.65;;;12.57;;
36839;SDS011;24406;51.640;9.566;2023-04-08T02:12:36;18.50;;;12.63;;
36839;SDS011;24406;51.640;9.566;2023-04-08T02:17:44;14.07;;;12.20;;
36839;SDS011;24406;51.640;9.566;2023-04-08T02:22:52;15.80;;;12.07;;
36839;SDS011;24406;51.640;9.566;2023-04-08T02:28:00;15.50;;;12.40;;
36839;SDS011;24406;51.640;9.566;2023-04-08T02:33:03;12.98;;;10.70;;
36839;SDS011;24406;51.640;9.566;2023-04-08T02:38:06;15.55;;;11.55;;
36839;SDS011;24406;51.640;9.566;2023-04-08T02:43:09;13.27;;;10.52;;
36839;SDS011;24406;51.640;9.566;2023-04-08T02:48:12;11.40;;;10.20;;
36839;SDS011;24406;51.640;9.566;2023-04-08T02:53:14;15.10;;;10.55;;
36839;SDS011;24406;51.640;9.566;2023-04-08T02:58:17;10.45;;;9.35;;
36839;SDS011;24406;51.640;9.566;2023-04-08T03:03:18;11.50;;;10.27;;
36839;SDS011;24406;51.640;9.566;2023-04-08T03:08:26;11.98;;;9.52;;
36839;SDS011;24406;51.640;9.566;2023-04-08T03:13:29;11.57;;;9.65;;
36839;SDS011;24406;51.640;9.566;2023-04-08T03:18:30;12.75;;;9.30;;
36839;SDS011;24406;51.640;9.566;2023-04-08T03:23:32;11.05;;;9.27;;
36839;SDS011;24406;51.640;9.566;2023-04-08T03:28:35;10.13;;;8.20;;
36839;SDS011;24406;51.640;9.566;2023-04-08T03:33:37;12.30;;;10.60;;
36839;SDS011;24406;51.640;9.566;2023-04-08T03:38:39;15.45;;;11.95;;
36839;SDS011;24406;51.640;9.566;2023-04-08T03:43:42;22.05;;;16.15;;
36839;SDS011;24406;51.640;9.566;2023-04-08T03:48:43;24.52;;;17.67;;
36839;SDS011;24406;51.640;9.566;2023-04-08T03:53:45;27.33;;;18.63;;
36839;SDS011;24406;51.640;9.566;2023-04-08T03:58:48;31.58;;;23.65;;
36839;SDS011;24406;51.640;9.566;2023-04-08T04:03:50;30.83;;;23.55;;
36839;SDS011;24406;51.640;9.566;2023-04-08T04:08:52;23.73;;;17.83;;
36839;SDS011;24406;51.640;9.566;2023-04-08T04:13:55;20.67;;;15.98;;
36839;SDS011;24406;51.640;9.566;2023-04-08T04:18:57;15.52;;;13.68;;
36839;SDS011;24406;51.640;9.566;2023-04-08T04:23:59;17.13;;;14.55;;
36839;SDS011;24406;51.640;9.566;2023-04-08T04:29:02;18.02;;;13.95;;
36839;SDS011;24406;51.640;9.566;2023-04-08T04:34:03;17.33;;;13.23;;
36839;SDS011;24406;51.640;9.566;2023-04-08T04:39:05;16.92;;;12.65;;
36839;SDS011;24406;51.640;9.566;2023-04-08T04:44:08;16.25;;;13.02;;
36839;SDS011;24406;51.640;9.566;2023-04-08T04:49:09;13.95;;;11.98;;
36839;SDS011;24406;51.640;9.566;2023-04-08T04:54:12;13.38;;;11.50;;
36839;SDS011;24406;51.640;9.566;2023-04-08T04:59:15;11.02;;;9.77;;
36839;SDS011;24406;51.640;9.566;2023-04-08T05:04:17;11.32;;;10.05;;
36839;SDS011;24406;51.640;9.566;2023-04-08T05:09:18;12.25;;;10.60;;
36839;SDS011;24406;51.640;9.566;2023-04-08T05:14:22;11.23;;;9.85;;
36839;SDS011;24406;51.640;9.566;2023-04-08T05:19:23;14.10;;;11.05;;
36839;SDS011;24406;51.640;9.566;2023-04-08T05:24:25;13.07;;;11.25;;
36839;SDS011;24406;51.640;9.566;2023-04-08T05:29:28;12.73;;;10.43;;
36839;SDS011;24406;51.640;9.566;2023-04-08T05:34:30;14.25;;;10.68;;
36839;SDS011;24406;51.640;9.566;2023-04-08T05:39:31;14.23;;;10.80;;
36839;SDS011;24406;51.640;9.566;2023-04-08T05:44:35;12.88;;;11.57;;
36839;SDS011;24406;51.640;9.566;2023-04-08T05:49:37;16.17;;;13.50;;
36839;SDS011;24406;51.640;9.566;2023-04-08T05:54:41;17.80;;;14.68;;
36839;SDS011;24406;51.640;9.566;2023-04-08T05:59:45;18.25;;;13.63;;
36839;SDS011;24406;51.640;9.566;2023-04-08T06:04:49;18.08;;;13.50;;
36839;SDS011;24406;51.640;9.566;2023-04-08T06:09:52;18.17;;;13.77;;
36839;SDS011;24406;51.640;9.566;2023-04-08T06:14:56;18.33;;;14.52;;
36839;SDS011;24406;51.640;9.566;2023-04-08T06:20:00;17.50;;;13.93;;
36839;SDS011;24406;51.640;9.566;2023-04-08T06:25:04;16.65;;;13.20;;
36839;SDS011;24406;51.640;9.566;2023-04-08T06:30:10;16.55;;;13.25;;
36839;SDS011;24406;51.640;9.566;2023-04-08T06:35:12;19.05;;;14.48;;
36839;SDS011;24406;51.640;9.566;2023-04-08T06:40:14;16.15;;;13.00;;
36839;SDS011;24406;51.640;9.566;2023-04-08T06:45:18;17.58;;;13.82;;
36839;SDS011;24406;51.640;9.566;2023-04-08T06:50:20;16.20;;;11.88;;
36839;SDS011;24406;51.640;9.566;2023-04-08T06:55:22;15.35;;;12.18;;
36839;SDS011;24406;51.640;9.566;2023-04-08T07:00:25;16.83;;;12.98;;
36839;SDS011;24406;51.640;9.566;2023-04-08T07:05:27;15.32;;;12.43;;
36839;SDS011;24406;51.640;9.566;2023-04-08T07:10:29;19.42;;;14.05;;
36839;SDS011;24406;51.640;9.566;2023-04-08T07:15:33;18.52;;;14.55;;
36839;SDS011;24406;51.640;9.566;2023-04-08T07:20:36;20.20;;;14.93;;
36839;SDS011;24406;51.640;9.566;2023-04-08T07:25:37;19.42;;;15.82;;
36839;SDS011;24406;51.640;9.566;2023-04-08T07:30:40;22.95;;;17.05;;
36839;SDS011;24406;51.640;9.566;2023-04-08T07:35:42;25.20;;;19.38;;
36839;SDS011;24406;51.640;9.566;2023-04-08T07:40:44;25.02;;;19.30;;
36839;SDS011;24406;51.640;9.566;2023-04-08T07:45:47;29.10;;;19.75;;
36839;SDS011;24406;51.640;9.566;2023-04-08T07:50:48;31.00;;;21.30;;
36839;SDS011;24406;51.640;9.566;2023-04-08T07:55:50;30.63;;;20.42;;
36839;SDS011;24406;51.640;9.566;2023-04-08T08:00:53;33.85;;;22.45;;
36839;SDS011;24406;51.640;9.566;2023-04-08T08:05:56;31.23;;;20.52;;
36839;SDS011;24406;51.640;9.566;2023-04-08T08:10:58;29.67;;;20.15;;
36839;SDS011;24406;51.640;9.566;2023-04-08T08:16:02;27.85;;;19.80;;
36839;SDS011;24406;51.640;9.566;2023-04-08T08:21:07;31.27;;;20.00;;
36839;SDS011;24406;51.640;9.566;2023-04-08T08:26:09;27.63;;;19.40;;
36839;SDS011;24406;51.640;9.566;2023-04-08T08:31:12;27.65;;;17.20;;
36839;SDS011;24406;51.640;9.566;2023-04-08T08:36:14;23.05;;;16.27;;
36839;SDS011;24406;51.640;9.566;2023-04-08T08:41:17;23.33;;;17.25;;
36839;SDS011;24406;51.640;9.566;2023-04-08T08:46:20;27.77;;;19.40;;
36839;SDS011;24406;51.640;9.566;2023-04-08T08:51:21;27.05;;;19.40;;
36839;SDS011;24406;51.640;9.566;2023-04-08T08:56:23;26.17;;;19.40;;
36839;SDS011;24406;51.640;9.566;2023-04-08T09:01:30;25.92;;;19.15;;
36839;SDS011;24406;51.640;9.566;2023-04-08T09:06:35;25.27;;;17.35;;
36839;SDS011;24406;51.640;9.566;2023-04-08T09:11:38;24.48;;;17.17;;
36839;SDS011;24406;51.640;9.566;2023-04-08T09:16:42;22.67;;;16.60;;
36839;SDS011;24406;51.640;9.566;2023-04-08T09:21:47;29.90;;;17.02;;
36839;SDS011;24406;51.640;9.566;2023-04-08T09:27:05;22.13;;;15.75;;
36839;SDS011;24406;51.640;9.566;2023-04-08T09:32:10;23.25;;;16.73;;
36839;SDS011;24406;51.640;9.566;2023-04-08T09:37:12;27.13;;;16.42;;
36839;SDS011;24406;51.640;9.566;2023-04-08T09:42:14;21.17;;;16.42;;
36839;SDS011;24406;51.640;9.566;2023-04-08T09:47:19;26.20;;;18.90;;
36839;SDS011;24406;51.640;9.566;2023-04-08T09:52:28;21.10;;;16.02;;
36839;SDS011;24406;51.640;9.566;2023-04-08T09:57:35;21.60;;;15.77;;
36839;SDS011;24406;51.640;9.566;2023-04-08T10:02:48;24.38;;;17.52;;
36839;SDS011;24406;51.640;9.566;2023-04-08T10:07:55;21.52;;;15.18;;
36839;SDS011;24406;51.640;9.566;2023-04-08T10:12:57;24.65;;;17.55;;
36839;SDS011;24406;51.640;9.566;2023-04-08T10:23:53;25.83;;;19.30;;
36839;SDS011;24406;51.640;9.566;2023-04-08T10:34:34;21.23;;;15.48;;
36839;SDS011;24406;51.640;9.566;2023-04-08T10:39:53;23.90;;;15.30;;
36839;SDS011;24406;51.640;9.566;2023-04-08T10:44:58;22.13;;;15.65;;
36839;SDS011;24406;51.640;9.566;2023-04-08T10:50:12;21.23;;;15.20;;
36839;SDS011;24406;51.640;9.566;2023-04-08T10:55:20;22.92;;;16.80;;
36839;SDS011;24406;51.640;9.566;2023-04-08T11:00:31;23.05;;;16.27;;
36839;SDS011;24406;51.640;9.566;2023-04-08T11:05:36;24.88;;;17.23;;
36839;SDS011;24406;51.640;9.566;2023-04-08T11:10:39;25.75;;;17.33;;
36839;SDS011;24406;51.640;9.566;2023-04-08T11:15:41;22.35;;;16.73;;
36839;SDS011;24406;51.640;9.566;2023-04-08T11:20:44;24.25;;;17.63;;
36839;SDS011;24406;51.640;9.566;2023-04-08T11:25:47;23.98;;;17.88;;
36839;SDS011;24406;51.640;9.566;2023-04-08T11:30:50;25.60;;;18.33;;
36839;SDS011;24406;51.640;9.566;2023-04-08T11:35:53;24.17;;;17.55;;
36839;SDS011;24406;51.640;9.566;2023-04-08T11:40:56;26.63;;;18.98;;
36839;SDS011;24406;51.640;9.566;2023-04-08T11:45:59;23.92;;;17.25;;
36839;SDS011;24406;51.640;9.566;2023-04-08T11:51:03;23.58;;;18.17;;
36839;SDS011;24406;51.640;9.566;2023-04-08T11:56:14;25.13;;;18.48;;
36839;SDS011;24406;51.640;9.566;2023-04-08T12:01:17;21.65;;;16.63;;
36839;SDS011;24406;51.640;9.566;2023-04-08T12:06:24;23.65;;;17.83;;
36839;SDS011;24406;51.640;9.566;2023-04-08T12:11:27;24.77;;;16.93;;
36839;SDS011;24406;51.640;9.566;2023-04-08T12:16:29;25.30;;;18.30;;
36839;SDS011;24406;51.640;9.566;2023-04-08T12:21:32;27.85;;;18.73;;
36839;SDS011;24406;51.640;9.566;2023-04-08T12:26:34;26.15;;;18.33;;
36839;SDS011;24406;51.640;9.566;2023-04-08T12:31:36;29.17;;;18.75;;
36839;SDS011;24406;51.640;9.566;2023-04-08T12:36:39;23.85;;;17.10;;
36839;SDS011;24406;51.640;9.566;2023-04-08T12:41:41;22.48;;;17.40;;
36839;SDS011;24406;51.640;9.566;2023-04-08T12:46:42;23.00;;;17.80;;
36839;SDS011;24406;51.640;9.566;2023-04-08T12:51:45;26.10;;;19.05;;
36839;SDS011;24406;51.640;9.566;2023-04-08T12:56:47;22.73;;;17.10;;
36839;SDS011;24406;51.640;9.566;2023-04-08T13:01:48;26.80;;;19.60;;
36839;SDS011;24406;51.640;9.566;2023-04-08T13:06:51;23.25;;;18.23;;
36839;SDS011;24406;51.640;9.566;2023-04-08T13:11:54;25.85;;;19.02;;
36839;SDS011;24406;51.640;9.566;2023-04-08T13:16:57;28.13;;;19.83;;
36839;SDS011;24406;51.640;9.566;2023-04-08T13:22:01;25.55;;;18.15;;
36839;SDS011;24406;51.640;9.566;2023-04-08T13:27:03;25.65;;;18.27;;
36839;SDS011;24406;51.640;9.566;2023-04-08T13:32:04;28.20;;;19.40;;
36839;SDS011;24406;51.640;9.566;2023-04-08T13:37:07;24.35;;;17.45;;
36839;SDS011;24406;51.640;9.566;2023-04-08T13:42:09;24.52;;;17.40;;
36839;SDS011;24406;51.640;9.566;2023-04-08T13:47:11;22.23;;;17.92;;
36839;SDS011;24406;51.640;9.566;2023-04-08T13:52:14;25.80;;;17.67;;
36839;SDS011;24406;51.640;9.566;2023-04-08T13:57:15;24.42;;;17.67;;
36839;SDS011;24406;51.640;9.566;2023-04-08T14:02:17;22.13;;;15.63;;
36839;SDS011;24406;51.640;9.566;2023-04-08T14:07:20;21.80;;;16.00;;
36839;SDS011;24406;51.640;9.566;2023-04-08T14:12:22;19.85;;;15.23;;
36839;SDS011;24406;51.640;9.566;2023-04-08T14:17:24;23.95;;;17.38;;
36839;SDS011;24406;51.640;9.566;2023-04-08T14:22:27;22.38;;;16.73;;
36839;SDS011;24406;51.640;9.566;2023-04-08T14:27:29;20.00;;;15.27;;
36839;SDS011;24406;51.640;9.566;2023-04-08T14:32:31;20.55;;;14.75;;
36839;SDS011;24406;51.640;9.566;2023-04-08T14:37:34;18.27;;;13.85;;
36839;SDS011;24406;51.640;9.566;2023-04-08T14:42:37;19.08;;;14.65;;
36839;SDS011;24406;51.640;9.566;2023-04-08T14:47:38;19.20;;;14.82;;
36839;SDS011;24406;51.640;9.566;2023-04-08T14:52:41;19.13;;;14.73;;
36839;SDS011;24406;51.640;9.566;2023-04-08T14:57:44;23.50;;;17.30;;
36839;SDS011;24406;51.640;9.566;2023-04-08T15:02:45;24.95;;;17.77;;
36839;SDS011;24406;51.640;9.566;2023-04-08T15:07:49;20.70;;;15.50;;
36839;SDS011;24406;51.640;9.566;2023-04-08T15:12:50;22.77;;;16.95;;
36839;SDS011;24406;51.640;9.566;2023-04-08T15:17:52;24.02;;;17.08;;
36839;SDS011;24406;51.640;9.566;2023-04-08T15:22:55;25.77;;;19.10;;
36839;SDS011;24406;51.640;9.566;2023-04-08T15:27:57;23.52;;;17.77;;
36839;SDS011;24406;51.640;9.566;2023-04-08T15:32:59;25.88;;;18.08;;
36839;SDS011;24406;51.640;9.566;2023-04-08T15:38:03;27.55;;;19.58;;
36839;SDS011;24406;51.640;9.566;2023-04-08T15:43:04;36.78;;;25.92;;
36839;SDS011;24406;51.640;9.566;2023-04-08T15:48:09;38.20;;;23.42;;
36839;SDS011;24406;51.640;9.566;2023-04-08T15:53:13;41.78;;;25.98;;
36839;SDS011;24406;51.640;9.566;2023-04-08T15:58:15;32.35;;;22.38;;
36839;SDS011;24406;51.640;9.566;2023-04-08T16:03:17;35.40;;;24.20;;
36839;SDS011;24406;51.640;9.566;2023-04-08T16:08:21;38.50;;;24.35;;
36839;SDS011;24406;51.640;9.566;2023-04-08T16:13:23;32.70;;;23.65;;
36839;SDS011;24406;51.640;9.566;2023-04-08T16:18:25;37.83;;;25.52;;
36839;SDS011;24406;51.640;9.566;2023-04-08T16:23:29;33.80;;;22.20;;
36839;SDS011;24406;51.640;9.566;2023-04-08T16:28:31;37.08;;;24.58;;
36839;SDS011;24406;51.640;9.566;2023-04-08T16:33:33;34.15;;;24.10;;
36839;SDS011;24406;51.640;9.566;2023-04-08T16:38:37;34.47;;;24.70;;
36839;SDS011;24406;51.640;9.566;2023-04-08T16:43:39;42.45;;;27.45;;
36839;SDS011;24406;51.640;9.566;2023-04-08T16:48:41;39.33;;;25.85;;
36839;SDS011;24406;51.640;9.566;2023-04-08T16:53:44;32.25;;;21.50;;
36839;SDS011;24406;51.640;9.566;2023-04-08T16:58:46;38.08;;;26.08;;
36839;SDS011;24406;51.640;9.566;2023-04-08T17:03:47;35.42;;;23.23;;
36839;SDS011;24406;51.640;9.566;2023-04-08T17:08:52;32.65;;;21.08;;
36839;SDS011;24406;51.640;9.566;2023-04-08T17:13:55;33.17;;;20.60;;
36839;SDS011;24406;51.640;9.566;2023-04-08T17:18:56;33.58;;;22.25;;
36839;SDS011;24406;51.640;9.566;2023-04-08T17:23:59;31.20;;;20.33;;
36839;SDS011;24406;51.640;9.566;2023-04-08T17:29:01;32.72;;;21.52;;
36839;SDS011;24406;51.640;9.566;2023-04-08T17:34:03;30.13;;;22.23;;
36839;SDS011;24406;51.640;9.566;2023-04-08T17:39:06;33.00;;;20.02;;
36839;SDS011;24406;51.640;9.566;2023-04-08T17:44:08;29.88;;;21.08;;
36839;SDS011;24406;51.640;9.566;2023-04-08T17:49:09;34.13;;;20.70;;
36839;SDS011;24406;51.640;9.566;2023-04-08T17:54:14;32.65;;;21.15;;
36839;SDS011;24406;51.640;9.566;2023-04-08T17:59:16;35.33;;;22.40;;
36839;SDS011;24406;51.640;9.566;2023-04-08T18:04:18;30.25;;;20.35;;
36839;SDS011;24406;51.640;9.566;2023-04-08T18:09:22;31.48;;;22.00;;
36839;SDS011;24406;51.640;9.566;2023-04-08T18:14:23;33.90;;;22.50;;
36839;SDS011;24406;51.640;9.566;2023-04-08T18:19:25;32.22;;;22.95;;
36839;SDS011;24406;51.640;9.566;2023-04-08T18:24:28;38.28;;;24.42;;
36839;SDS011;24406;51.640;9.566;2023-04-08T18:29:30;35.40;;;23.75;;
36839;SDS011;24406;51.640;9.566;2023-04-08T18:34:32;32.47;;;21.48;;
36839;SDS011;24406;51.640;9.566;2023-04-08T18:39:35;35.65;;;23.80;;
36839;SDS011;24406;51.640;9.566;2023-04-08T18:44:40;32.83;;;21.40;;
36839;SDS011;24406;51.640;9.566;2023-04-08T18:49:41;35.85;;;22.58;;
36839;SDS011;24406;51.640;9.566;2023-04-08T18:54:44;35.58;;;24.42;;
36839;SDS011;24406;51.640;9.566;2023-04-08T18:59:47;39.40;;;25.70;;
36839;SDS011;24406;51.640;9.566;2023-04-08T19:04:48;38.55;;;25.40;;
36839;SDS011;24406;51.640;9.566;2023-04-08T19:09:55;36.22;;;24.98;;
36839;SDS011;24406;51.640;9.566;2023-04-08T19:14:57;42.35;;;26.67;;
36839;SDS011;24406;51.640;9.566;2023-04-08T19:19:59;40.55;;;27.17;;
36839;SDS011;24406;51.640;9.566;2023-04-08T19:25:04;36.70;;;25.25;;
36839;SDS011;24406;51.640;9.566;2023-04-08T19:30:06;37.13;;;25.25;;
36839;SDS011;24406;51.640;9.566;2023-04-08T19:35:10;42.00;;;26.08;;
36839;SDS011;24406;51.640;9.566;2023-04-08T19:40:13;45.67;;;28.67;;
36839;SDS011;24406;51.640;9.566;2023-04-08T19:45:15;42.17;;;28.13;;
36839;SDS011;24406;51.640;9.566;2023-04-08T19:50:17;42.63;;;27.33;;
36839;SDS011;24406;51.640;9.566;2023-04-08T19:55:22;40.88;;;27.27;;
36839;SDS011;24406;51.640;9.566;2023-04-08T20:00:25;42.75;;;28.65;;
36839;SDS011;24406;51.640;9.566;2023-04-08T20:05:28;45.42;;;29.42;;
36839;SDS011;24406;51.640;9.566;2023-04-08T20:10:31;50.83;;;31.05;;
36839;SDS011;24406;51.640;9.566;2023-04-08T20:15:34;56.72;;;33.92;;
36839;SDS011;24406;51.640;9.566;2023-04-08T20:20:36;49.53;;;30.92;;
36839;SDS011;24406;51.640;9.566;2023-04-08T20:25:40;55.15;;;34.05;;
36839;SDS011;24406;51.640;9.566;2023-04-08T20:30:43;75.90;;;42.38;;
36839;SDS011;24406;51.640;9.566;2023-04-08T20:35:45;62.00;;;37.70;;
36839;SDS011;24406;51.640;9.566;2023-04-08T20:40:50;59.67;;;36.30;;
36839;SDS011;24406;51.640;9.566;2023-04-08T20:45:52;58.45;;;35.63;;
36839;SDS011;24406;51.640;9.566;2023-04-08T20:50:54;53.75;;;32.65;;
36839;SDS011;24406;51.640;9.566;2023-04-08T20:55:57;48.60;;;32.08;;
36839;SDS011;24406;51.640;9.566;2023-04-08T21:00:59;56.42;;;33.38;;
36839;SDS011;24406;51.640;9.566;2023-04-08T21:06:01;53.22;;;34.13;;
36839;SDS011;24406;51.640;9.566;2023-04-08T21:11:04;50.78;;;32.78;;
36839;SDS011;24406;51.640;9.566;2023-04-08T21:16:06;49.70;;;33.15;;
36839;SDS011;24406;51.640;9.566;2023-04-08T21:21:08;42.97;;;28.85;;
36839;SDS011;24406;51.640;9.566;2023-04-08T21:26:12;44.42;;;27.77;;
36839;SDS011;24406;51.640;9.566;2023-04-08T21:31:14;43.97;;;28.58;;
36839;SDS011;24406;51.640;9.566;2023-04-08T21:36:16;40.00;;;24.98;;
36839;SDS011;24406;51.640;9.566;2023-04-08T21:41:20;37.45;;;24.55;;
36839;SDS011;24406;51.640;9.566;2023-04-08T21:46:23;38.78;;;26.83;;
36839;SDS011;24406;51.640;9.566;2023-04-08T21:51:25;41.10;;;25.05;;
36839;SDS011;24406;51.640;9.566;2023-04-08T21:56:29;45.08;;;25.38;;
36839;SDS011;24406;51.640;9.566;2023-04-08T22:01:32;38.55;;;25.92;;
36839;SDS011;24406;51.640;9.566;2023-04-08T22:06:33;45.35;;;29.00;;
36839;SDS011;24406;51.640;9.566;2023-04-08T22:11:37;40.83;;;25.95;;
36839;SDS011;24406;51.640;9.566;2023-04-08T22:16:39;46.92;;;30.13;;
36839;SDS011;24406;51.640;9.566;2023-04-08T22:21:42;44.58;;;29.38;;
36839;SDS011;24406;51.640;9.566;2023-04-08T22:26:45;41.55;;;26.42;;
36839;SDS011;24406;51.640;9.566;2023-04-08T22:31:46;42.10;;;28.40;;
36839;SDS011;24406;51.640;9.566;2023-04-08T22:36:48;45.28;;;28.35;;
36839;SDS011;24406;51.640;9.566;2023-04-08T22:41:51;51.38;;;30.25;;
36839;SDS011;24406;51.640;9.566;2023-04-08T22:46:53;49.22;;;30.08;;
36839;SDS011;24406;51.640;9.566;2023-04-08T22:51:54;49.50;;;30.17;;
36839;SDS011;24406;51.640;9.566;2023-04-08T22:56:57;44.78;;;28.58;;
36839;SDS011;24406;51.640;9.566;2023-04-08T23:01:59;44.90;;;27.98;;
36839;SDS011;24406;51.640;9.566;2023-04-08T23:07:01;51.85;;;31.98;;
36839;SDS011;24406;51.640;9.566;2023-04-08T23:12:04;50.78;;;31.45;;
36839;SDS011;24406;51.640;9.566;2023-04-08T23:17:05;56.28;;;34.90;;
36839;SDS011;24406;51.640;9.566;2023-04-08T23:22:07;60.35;;;34.35;;
36839;SDS011;24406;51.640;9.566;2023-04-08T23:27:10;64.47;;;35.03;;
36839;SDS011;24406;51.640;9.566;2023-04-08T23:32:12;57.17;;;34.95;;
36839;SDS011;24406;51.640;9.566;2023-04-08T23:37:13;58.65;;;33.92;;
36839;SDS011;24406;51.640;9.566;2023-04-08T23:42:16;56.38;;;32.92;;
36839;SDS011;24406;51.640;9.566;2023-04-08T23:47:20;54.47;;;32.05;;
36839;SDS011;24406;51.640;9.566;2023-04-08T23:52:22;68.88;;;41.90;;
36839;SDS011;24406;51.640;9.566;2023-04-08T23:57:25;59.35;;;35.08;;
